Time;durP1;ratioP1;P1;durP2;ratioP2;P2;SDS_P1;SDS_P2;PMS_P1;PMS_P2;Temp;Humidity;BMP_temperature;BMP_pressure;BME280_temperature;BME280_humidity;BME280_pressure;Samples;Min_cycle;Max_cycle;Signal;HPM_P1;HPM_P2
2023/05/03 00:01:11;;;;;;;6.45;5.40;;;16.60;62.10;;;;;;5073842;28;20038;-72
2023/05/03 00:03:37;;;;;;;5.28;4.78;;;16.50;62.30;;;;;;5074054;28;20494;-73
2023/05/03 00:06:10;;;;;;;6.13;5.13;;;16.50;62.30;;;;;;5072630;28;20074;-73
2023/05/03 00:08:36;;;;;;;5.72;4.68;;;16.50;62.20;;;;;;5073837;28;20024;-73
2023/05/03 00:11:02;;;;;;;5.05;4.45;;;16.50;62.20;;;;;;5073686;28;20098;-73
2023/05/03 00:13:28;;;;;;;5.65;4.72;;;16.60;62.10;;;;;;5073755;28;20466;-73
2023/05/03 00:15:53;;;;;;;7.22;5.45;;;16.60;62.90;;;;;;5073680;28;20028;-73
2023/05/03 00:18:19;;;;;;;5.05;4.50;;;16.50;62.10;;;;;;5072298;28;20036;-73
2023/05/03 00:20:45;;;;;;;5.70;4.45;;;16.50;62.00;;;;;;5073590;28;20029;-73
2023/05/03 00:23:11;;;;;;;6.03;5.07;;;16.50;62.00;;;;;;5064974;28;20044;-73
2023/05/03 00:25:37;;;;;;;8.57;4.82;;;16.50;62.10;;;;;;5053394;28;20045;-73
2023/05/03 00:28:03;;;;;;;5.72;5.13;;;16.50;62.10;;;;;;5053668;28;20036;-73
2023/05/03 00:30:29;;;;;;;5.80;5.10;;;16.50;62.10;;;;;;5052732;28;20017;-73
2023/05/03 00:32:55;;;;;;;6.00;5.40;;;16.50;62.20;;;;;;5053221;28;20381;-72
2023/05/03 00:35:20;;;;;;;7.60;5.40;;;16.50;62.30;;;;;;5073414;28;20028;-74
2023/05/03 00:37:46;;;;;;;5.60;5.00;;;16.50;62.30;;;;;;5073433;28;20466;-73
2023/05/03 00:40:14;;;;;;;8.70;5.35;;;16.50;62.30;;;;;;5073371;28;20020;-73
2023/05/03 00:42:40;;;;;;;7.00;6.30;;;16.60;62.40;;;;;;5073414;28;20032;-72
2023/05/03 00:45:06;;;;;;;9.10;7.10;;;16.50;62.40;;;;;;5072093;28;20028;-73
2023/05/03 00:47:32;;;;;;;9.68;7.35;;;16.50;62.40;;;;;;5073420;28;20043;-73
2023/05/03 00:49:59;;;;;;;9.65;6.07;;;16.50;62.40;;;;;;5073273;28;20488;-73
2023/05/03 00:52:26;;;;;;;9.07;6.97;;;16.50;62.40;;;;;;5070359;28;20443;-73
2023/05/03 00:54:52;;;;;;;7.20;6.20;;;16.50;62.40;;;;;;5053168;28;20029;-73
2023/05/03 00:57:21;;;;;;;8.60;7.10;;;16.50;62.50;;;;;;5053172;28;20032;-73
2023/05/03 00:59:48;;;;;;;7.50;6.68;;;16.50;62.60;;;;;;5051621;28;20116;-73
2023/05/03 01:02:13;;;;;;;7.43;6.25;;;16.50;62.50;;;;;;5053094;28;20120;-73
2023/05/03 01:04:41;;;;;;;9.07;6.70;;;16.50;62.60;;;;;;5053063;28;20461;-73
2023/05/03 01:07:18;;;;;;;9.52;6.50;;;16.40;62.50;;;;;;5051732;28;20131;-72
2023/05/03 01:10:03;;;;;;;8.27;6.15;;;16.40;62.50;;;;;;5053060;28;20071;-73
2023/05/03 01:12:55;;;;;;;9.05;6.38;;;16.40;62.70;;;;;;5053036;28;20032;-73
2023/05/03 01:15:55;;;;;;;7.18;6.18;;;16.40;62.60;;;;;;5052399;28;20025;-73
2023/05/03 01:18:31;;;;;;;7.00;5.93;;;16.40;62.70;;;;;;5072960;28;20053;-73
2023/05/03 01:20:59;;;;;;;7.53;5.72;;;16.40;62.80;;;;;;5071560;28;20111;-73
2023/05/03 01:23:32;;;;;;;6.95;5.20;;;16.40;62.80;;;;;;5062988;28;20079;-73
2023/05/03 01:25:58;;;;;;;8.13;6.75;;;16.40;62.80;;;;;;5051626;28;20409;-73
2023/05/03 01:28:24;;;;;;;7.43;5.95;;;16.40;62.90;;;;;;5052832;28;20021;-73
2023/05/03 01:30:53;;;;;;;8.93;6.35;;;16.40;62.90;;;;;;5052732;28;20502;-73
2023/05/03 01:33:56;;;;;;;6.80;5.57;;;16.40;63.00;;;;;;5052986;28;20108;-73
2023/05/03 01:36:34;;;;;;;7.20;5.60;;;16.30;62.90;;;;;;5051509;28;20037;-74
2023/05/03 01:39:09;;;;;;;7.43;5.32;;;16.30;62.90;;;;;;5051501;28;20025;-73
2023/05/03 01:41:39;;;;;;;7.75;6.53;;;16.30;63.00;;;;;;5052662;28;20383;-73
2023/05/03 01:44:06;;;;;;;6.95;6.05;;;16.30;63.00;;;;;;5056508;28;20020;-73
2023/05/03 01:46:32;;;;;;;6.22;5.22;;;16.30;63.00;;;;;;5055198;28;20029;-73
2023/05/03 01:48:58;;;;;;;7.68;6.10;;;16.30;63.00;;;;;;5056450;28;20112;-73
2023/05/03 01:51:24;;;;;;;7.00;5.72;;;16.30;63.10;;;;;;5056571;28;20025;-73
2023/05/03 01:53:50;;;;;;;7.35;5.20;;;16.30;63.10;;;;;;5056384;28;20025;-73
2023/05/03 01:56:16;;;;;;;6.68;5.40;;;16.20;63.10;;;;;;5056482;28;20549;-73
2023/05/03 01:58:42;;;;;;;6.63;5.60;;;16.30;63.20;;;;;;5056445;28;20025;-72
2023/05/03 02:01:08;;;;;;;7.57;5.72;;;16.30;63.30;;;;;;5056376;28;20025;-73
2023/05/03 02:03:34;;;;;;;7.03;5.47;;;16.20;63.30;;;;;;5056412;28;20013;-74
2023/05/03 02:06:00;;;;;;;7.13;5.43;;;16.20;63.50;;;;;;5055078;28;20021;-73
2023/05/03 02:08:25;;;;;;;7.50;5.95;;;16.20;63.70;;;;;;5056252;28;20022;-74
2023/05/03 02:10:51;;;;;;;12.18;6.35;;;16.20;63.60;;;;;;5054946;28;20028;-73
2023/05/03 02:13:17;;;;;;;8.73;5.55;;;16.20;63.50;;;;;;5056218;28;20382;-74
2023/05/03 02:15:43;;;;;;;10.65;5.45;;;16.20;63.50;;;;;;5071486;28;20050;-73
2023/05/03 02:18:09;;;;;;;7.90;6.50;;;16.20;63.40;;;;;;5076550;28;20024;-75
2023/05/03 02:20:36;;;;;;;6.70;5.90;;;16.20;63.60;;;;;;5076054;28;20112;-73
2023/05/03 02:23:05;;;;;;;6.40;5.30;;;16.20;63.70;;;;;;5070035;28;20025;-74
2023/05/03 02:25:31;;;;;;;5.85;5.07;;;16.10;63.50;;;;;;5055962;28;20045;-73
2023/05/03 02:27:57;;;;;;;6.20;5.18;;;16.20;63.70;;;;;;5054946;28;20031;-73
2023/05/03 02:30:23;;;;;;;6.93;5.57;;;16.20;63.80;;;;;;5054648;28;20021;-74
2023/05/03 02:32:48;;;;;;;9.90;6.20;;;16.20;63.70;;;;;;5056337;28;20025;-74
2023/05/03 02:35:14;;;;;;;8.13;5.93;;;16.20;63.60;;;;;;5055864;28;20017;-73
2023/05/03 02:37:40;;;;;;;6.35;5.57;;;16.20;63.50;;;;;;5054471;28;20025;-73
2023/05/03 02:40:08;;;;;;;6.97;5.70;;;16.20;63.50;;;;;;5054514;28;20023;-74
2023/05/03 02:42:34;;;;;;;6.63;5.68;;;16.20;63.40;;;;;;5055868;28;20113;-73
2023/05/03 02:44:59;;;;;;;6.75;5.55;;;16.20;63.30;;;;;;5055977;28;20044;-73
2023/05/03 02:47:25;;;;;;;6.72;5.78;;;16.20;63.30;;;;;;5055711;28;20086;-73
2023/05/03 02:49:51;;;;;;;7.07;5.95;;;16.20;63.20;;;;;;5054310;28;20171;-74
2023/05/03 02:52:17;;;;;;;6.03;4.90;;;16.20;63.10;;;;;;5055419;28;20478;-74
2023/05/03 02:54:43;;;;;;;6.68;5.35;;;16.20;63.10;;;;;;5054620;28;20466;-74
2023/05/03 02:57:10;;;;;;;5.70;5.07;;;16.20;63.10;;;;;;5054081;28;20037;-72
2023/05/03 02:59:35;;;;;;;7.13;4.70;;;16.20;63.30;;;;;;5055318;28;20112;-73
2023/05/03 03:02:01;;;;;;;5.80;5.15;;;16.10;63.20;;;;;;5064276;28;20158;-73
2023/05/03 03:04:27;;;;;;;7.00;5.53;;;16.20;63.30;;;;;;5060838;28;20143;-72
2023/05/03 03:06:53;;;;;;;6.97;5.20;;;16.10;63.50;;;;;;5055457;28;20159;-73
2023/05/03 03:09:19;;;;;;;7.10;5.68;;;16.10;63.60;;;;;;5069356;28;20482;-73
2023/05/03 03:11:45;;;;;;;10.20;6.40;;;16.10;63.90;;;;;;5074651;28;20035;-72
2023/05/03 03:14:11;;;;;;;7.55;5.38;;;16.10;64.00;;;;;;5066913;28;20112;-74
2023/05/03 03:16:36;;;;;;;6.78;5.55;;;16.10;63.90;;;;;;5055014;28;20057;-73
2023/05/03 03:19:02;;;;;;;6.47;5.63;;;16.10;63.80;;;;;;5060603;28;20036;-73
2023/05/03 03:21:28;;;;;;;6.53;5.57;;;16.10;63.90;;;;;;5074997;28;20052;-73
2023/05/03 03:23:55;;;;;;;6.32;5.55;;;16.20;64.00;;;;;;5059715;28;20395;-74
2023/05/03 03:26:21;;;;;;;7.13;5.72;;;16.10;63.80;;;;;;5060332;28;20024;-73
2023/05/03 03:28:46;;;;;;;6.47;5.35;;;16.20;63.90;;;;;;5073472;28;20017;-74
2023/05/03 03:31:12;;;;;;;9.48;6.00;;;16.10;63.80;;;;;;5061351;28;20482;-73
2023/05/03 03:33:38;;;;;;;7.30;5.43;;;16.20;63.80;;;;;;5059734;28;20069;-73
2023/05/03 03:36:06;;;;;;;7.20;5.60;;;16.20;63.80;;;;;;5055108;28;20063;-73
2023/05/03 03:38:32;;;;;;;8.48;5.95;;;16.20;63.70;;;;;;5066965;28;20051;-73
2023/05/03 03:40:58;;;;;;;7.65;5.97;;;16.20;63.80;;;;;;5072860;28;20029;-73
2023/05/03 03:43:24;;;;;;;10.88;5.97;;;16.20;63.70;;;;;;5057847;28;20032;-73
2023/05/03 03:45:49;;;;;;;6.70;5.80;;;16.20;63.70;;;;;;5054300;28;20013;-74
2023/05/03 03:48:15;;;;;;;8.45;6.32;;;16.20;63.70;;;;;;5053086;28;20554;-74
2023/05/03 03:50:41;;;;;;;10.60;6.30;;;16.20;63.70;;;;;;5072485;28;20024;-74
2023/05/03 03:53:09;;;;;;;8.90;6.55;;;16.20;63.70;;;;;;5066396;28;20098;-74
2023/05/03 03:55:35;;;;;;;7.30;6.25;;;16.20;63.60;;;;;;5054425;28;20055;-74
2023/05/03 03:58:01;;;;;;;8.48;6.18;;;16.20;63.60;;;;;;5058847;28;20061;-74
2023/05/03 04:00:27;;;;;;;6.35;5.55;;;16.20;63.60;;;;;;5057854;28;20480;-74
2023/05/03 04:02:57;;;;;;;10.43;6.22;;;16.20;63.60;;;;;;5054077;28;20466;-74
2023/05/03 04:05:23;;;;;;;8.00;6.80;;;16.30;63.30;;;;;;5054066;28;20028;-74
2023/05/03 04:07:49;;;;;;;7.90;6.72;;;16.20;63.20;;;;;;5055322;28;20054;-73
2023/05/03 04:10:14;;;;;;;8.60;6.57;;;16.30;63.10;;;;;;5056347;28;20028;-74
2023/05/03 04:12:40;;;;;;;10.70;6.68;;;16.30;63.00;;;;;;5060069;28;20055;-74
2023/05/03 04:15:07;;;;;;;8.32;6.82;;;16.30;62.90;;;;;;5053839;28;20431;-74
2023/05/03 04:17:33;;;;;;;9.32;6.95;;;16.30;62.50;;;;;;5053819;28;20029;-74
2023/05/03 04:20:05;;;;;;;15.63;9.40;;;16.30;62.20;;;;;;5059916;28;20348;-74
2023/05/03 04:22:31;;;;;;;9.43;7.65;;;16.20;60.60;;;;;;5071230;28;20037;-74
2023/05/03 04:24:59;;;;;;;13.88;9.05;;;16.20;61.20;;;;;;5072956;28;20048;-74
2023/05/03 04:27:26;;;;;;;16.80;8.57;;;16.20;59.50;;;;;;5093828;28;20026;-74
2023/05/03 04:29:52;;;;;;;13.80;8.73;;;16.10;59.20;;;;;;5094053;28;20026;-74
2023/05/03 04:32:22;;;;;;;13.43;7.18;;;16.00;59.20;;;;;;5092600;28;20035;-74
2023/05/03 04:34:51;;;;;;;13.60;8.75;;;16.00;58.80;;;;;;5080524;28;20020;-73
2023/05/03 04:37:18;;;;;;;14.48;8.50;;;16.00;58.50;;;;;;5073131;28;20025;-73
2023/05/03 04:39:44;;;;;;;10.73;7.40;;;15.90;58.10;;;;;;5071629;28;20028;-74
2023/05/03 04:42:13;;;;;;;13.00;7.60;;;15.90;57.70;;;;;;5070331;28;20493;-74
2023/05/03 04:44:39;;;;;;;12.30;7.65;;;15.80;57.80;;;;;;5072392;28;20032;-73
2023/05/03 04:47:07;;;;;;;11.07;7.82;;;15.80;57.90;;;;;;5093616;28;20016;-74
2023/05/03 04:49:33;;;;;;;10.90;7.65;;;15.80;58.10;;;;;;5082478;28;20558;-72
2023/05/03 04:52:00;;;;;;;11.10;7.68;;;15.80;58.20;;;;;;5071830;28;20043;-73
2023/05/03 04:54:25;;;;;;;10.55;7.57;;;15.70;57.60;;;;;;5055060;28;20036;-74
2023/05/03 04:56:52;;;;;;;11.00;7.78;;;15.70;57.50;;;;;;5053397;28;20025;-74
2023/05/03 04:59:18;;;;;;;9.40;7.78;;;15.70;57.70;;;;;;5053040;28;20100;-74
2023/05/03 05:01:44;;;;;;;11.93;7.55;;;15.70;57.60;;;;;;5053209;28;20112;-74
2023/05/03 05:04:10;;;;;;;14.55;8.07;;;15.70;57.30;;;;;;5059972;28;20447;-73
2023/05/03 05:06:35;;;;;;;11.57;7.45;;;15.70;57.30;;;;;;5058561;28;20024;-73
2023/05/03 05:09:01;;;;;;;11.48;7.68;;;15.70;57.30;;;;;;5073308;28;20029;-73
2023/05/03 05:11:27;;;;;;;10.07;6.38;;;15.70;57.10;;;;;;5070331;28;20040;-74
2023/05/03 05:13:53;;;;;;;9.82;6.57;;;15.80;57.70;;;;;;5073529;28;20419;-73
2023/05/03 05:16:19;;;;;;;11.95;7.90;;;15.90;57.70;;;;;;5073287;28;20035;-74
2023/05/03 05:18:45;;;;;;;11.85;7.47;;;16.00;57.40;;;;;;5073959;28;20029;-75
2023/05/03 05:21:11;;;;;;;12.07;7.15;;;16.10;57.50;;;;;;5075772;28;20035;-73
2023/05/03 05:23:37;;;;;;;12.00;7.40;;;16.00;56.40;;;;;;5064526;28;20025;-74
2023/05/03 05:26:03;;;;;;;14.02;8.25;;;16.10;56.20;;;;;;5066692;28;20040;-75
2023/05/03 05:28:29;;;;;;;9.07;6.63;;;16.00;56.10;;;;;;5077004;28;20025;-74
2023/05/03 05:30:55;;;;;;;11.98;6.18;;;16.10;56.60;;;;;;5075167;28;20035;-74
2023/05/03 05:33:21;;;;;;;9.00;6.93;;;16.20;56.80;;;;;;5076746;28;20390;-73
2023/05/03 05:35:47;;;;;;;8.55;6.43;;;16.30;56.70;;;;;;5076782;28;20105;-74
2023/05/03 05:38:16;;;;;;;7.75;5.38;;;16.40;57.00;;;;;;5075468;28;20107;-74
2023/05/03 05:40:42;;;;;;;17.85;7.90;;;16.50;57.20;;;;;;5074569;28;20032;-74
2023/05/03 05:43:08;;;;;;;8.05;5.93;;;16.60;56.50;;;;;;5073345;28;20024;-73
2023/05/03 05:45:35;;;;;;;8.32;6.28;;;16.70;56.60;;;;;;5076543;28;20104;-74
2023/05/03 05:48:00;;;;;;;9.93;6.55;;;16.80;56.10;;;;;;5075172;28;20021;-74
2023/05/03 05:50:26;;;;;;;10.23;6.22;;;16.90;56.10;;;;;;5066093;28;20021;-74
2023/05/03 05:52:53;;;;;;;10.60;6.78;;;17.00;56.10;;;;;;5064307;28;20024;-74
2023/05/03 05:55:20;;;;;;;10.35;6.75;;;17.00;56.10;;;;;;5076140;28;20436;-74
2023/05/03 05:57:46;;;;;;;9.85;7.10;;;17.10;55.80;;;;;;5075193;28;20104;-74
2023/05/03 06:00:14;;;;;;;11.95;6.53;;;17.20;55.70;;;;;;5074834;28;20388;-73
2023/05/03 06:02:40;;;;;;;13.38;7.35;;;17.30;55.60;;;;;;5076186;28;20032;-74
2023/05/03 06:05:07;;;;;;;9.23;7.05;;;17.40;55.30;;;;;;5074195;28;20033;-74
2023/05/03 06:07:32;;;;;;;10.18;6.82;;;17.40;54.70;;;;;;5076179;28;20025;-74
2023/05/03 06:09:58;;;;;;;11.75;6.47;;;17.50;55.00;;;;;;5075384;28;20032;-74
2023/05/03 06:12:24;;;;;;;9.98;6.70;;;17.50;55.30;;;;;;5064269;28;20029;-73
2023/05/03 06:14:50;;;;;;;12.30;7.88;;;17.60;54.70;;;;;;5070491;28;20028;-74
2023/05/03 06:17:16;;;;;;;9.23;6.80;;;17.70;54.40;;;;;;5076035;28;20066;-74
2023/05/03 06:19:42;;;;;;;13.25;7.28;;;17.80;54.70;;;;;;5076042;28;20389;-74
2023/05/03 06:22:07;;;;;;;10.98;6.60;;;17.90;54.10;;;;;;5073873;28;20074;-74
2023/05/03 06:24:33;;;;;;;11.18;6.60;;;17.90;54.10;;;;;;5061138;28;20048;-74
2023/05/03 06:26:59;;;;;;;10.88;7.88;;;18.00;54.00;;;;;;5055878;28;20569;-74
2023/05/03 06:29:25;;;;;;;10.82;7.35;;;18.10;52.70;;;;;;5054570;28;20497;-74
2023/05/03 06:31:52;;;;;;;12.95;7.80;;;18.10;53.00;;;;;;5055629;28;20058;-74
2023/05/03 06:34:21;;;;;;;12.05;8.07;;;18.20;52.90;;;;;;5062930;28;20020;-73
2023/05/03 06:36:47;;;;;;;11.30;7.53;;;18.20;52.30;;;;;;5075683;28;20024;-74
2023/05/03 06:39:13;;;;;;;12.88;8.02;;;18.20;52.40;;;;;;5075747;28;20021;-75
2023/05/03 06:41:39;;;;;;;14.43;8.48;;;18.20;51.90;;;;;;5075052;28;20028;-74
2023/05/03 06:44:06;;;;;;;13.55;9.05;;;18.10;51.60;;;;;;5063537;28;20108;-73
2023/05/03 06:46:32;;;;;;;13.07;8.38;;;18.10;51.60;;;;;;5073462;28;20024;-73
2023/05/03 06:48:58;;;;;;;14.52;9.20;;;18.00;51.80;;;;;;5075314;28;20390;-74
2023/05/03 06:51:28;;;;;;;15.00;8.80;;;17.90;51.80;;;;;;5075259;28;20100;-73
2023/05/03 06:53:59;;;;;;;11.65;8.57;;;17.90;52.30;;;;;;5066638;28;20207;-75
2023/05/03 06:56:25;;;;;;;13.32;7.95;;;17.90;52.10;;;;;;5055087;28;20028;-74
2023/05/03 06:58:52;;;;;;;15.70;8.85;;;17.80;52.30;;;;;;5072318;28;20514;-75
2023/05/03 07:01:19;;;;;;;16.83;11.75;;;17.80;52.60;;;;;;5073231;28;20109;-73
2023/05/03 07:03:45;;;;;;;10.57;7.72;;;17.90;52.60;;;;;;5073128;28;20071;-73
2023/05/03 07:06:11;;;;;;;11.80;7.68;;;17.90;52.90;;;;;;5074885;28;20526;-74
2023/05/03 07:08:37;;;;;;;11.85;7.75;;;18.00;52.90;;;;;;5074683;28;20104;-73
2023/05/03 07:11:09;;;;;;;12.85;8.40;;;18.10;52.30;;;;;;5074751;28;20111;-74
2023/05/03 07:13:35;;;;;;;11.13;8.05;;;18.20;52.00;;;;;;5075096;28;20029;-73
2023/05/03 07:16:01;;;;;;;16.30;8.95;;;18.20;52.20;;;;;;5072886;28;20505;-74
2023/05/03 07:18:27;;;;;;;13.10;8.32;;;18.20;51.90;;;;;;5054390;28;20118;-74
2023/05/03 07:20:53;;;;;;;11.05;7.78;;;18.20;51.70;;;;;;5054353;28;20074;-74
2023/05/03 07:23:19;;;;;;;15.18;8.77;;;18.20;52.00;;;;;;5066056;28;20048;-74
2023/05/03 07:25:45;;;;;;;11.07;7.53;;;18.20;51.50;;;;;;5052792;28;20130;-76
2023/05/03 07:28:11;;;;;;;15.88;7.85;;;18.30;51.70;;;;;;5054328;28;20474;-74
2023/05/03 07:30:37;;;;;;;12.13;8.25;;;18.30;52.00;;;;;;5054357;28;20029;-74
2023/05/03 07:33:02;;;;;;;12.32;8.05;;;18.30;51.50;;;;;;5055439;28;20029;-73
2023/05/03 07:35:29;;;;;;;15.35;8.95;;;18.40;51.40;;;;;;5074189;28;20028;-73
2023/05/03 07:37:55;;;;;;;16.60;9.05;;;18.50;51.90;;;;;;5072381;28;20016;-73
2023/05/03 07:40:23;;;;;;;13.27;8.02;;;18.50;51.40;;;;;;5070974;28;20459;-75
2023/05/03 07:42:48;;;;;;;12.25;8.40;;;18.60;51.90;;;;;;5072185;28;20036;-75
2023/05/03 07:45:14;;;;;;;14.40;9.18;;;18.70;51.10;;;;;;5065975;28;20385;-75
2023/05/03 07:47:40;;;;;;;11.55;7.95;;;18.80;51.30;;;;;;5054056;28;20548;-75
2023/05/03 07:50:07;;;;;;;12.70;8.65;;;18.90;51.10;;;;;;5054098;28;20343;-75
2023/05/03 07:52:36;;;;;;;14.25;9.07;;;19.00;51.00;;;;;;5062953;28;20116;-74
2023/05/03 07:55:02;;;;;;;12.88;7.88;;;19.10;51.00;;;;;;5055654;28;20025;-72
2023/05/03 07:57:28;;;;;;;28.08;16.65;;;19.20;50.80;;;;;;5053706;28;20040;-73
2023/05/03 07:59:54;;;;;;;16.58;9.30;;;19.40;51.30;;;;;;5068101;28;20071;-73
2023/05/03 08:02:20;;;;;;;15.07;8.13;;;19.50;50.60;;;;;;5073170;28;20031;-72
2023/05/03 08:04:46;;;;;;;13.85;7.63;;;19.60;49.50;;;;;;5071776;28;20078;-72
2023/05/03 08:07:12;;;;;;;13.50;7.50;;;19.70;49.40;;;;;;5073435;28;20024;-72
2023/05/03 08:09:38;;;;;;;13.63;7.45;;;19.70;48.60;;;;;;5073644;28;20032;-73
2023/05/03 08:12:04;;;;;;;13.80;7.47;;;19.70;48.50;;;;;;5073306;28;20028;-73
2023/05/03 08:14:32;;;;;;;14.25;7.63;;;19.80;48.30;;;;;;5073675;28;20027;-73
2023/05/03 08:16:58;;;;;;;10.68;6.53;;;19.80;48.30;;;;;;5068376;28;20030;-72
2023/05/03 08:19:24;;;;;;;11.05;7.15;;;19.90;48.80;;;;;;5073415;28;20017;-73
2023/05/03 08:21:53;;;;;;;9.45;7.00;;;20.00;49.20;;;;;;5073524;28;20024;-73
2023/05/03 08:24:19;;;;;;;11.35;7.22;;;20.10;47.80;;;;;;5059760;28;20049;-73
2023/05/03 08:26:47;;;;;;;9.95;6.25;;;20.10;47.00;;;;;;5053638;28;20107;-73
2023/05/03 08:29:13;;;;;;;12.05;6.88;;;20.10;47.20;;;;;;5053458;28;20017;-72
2023/05/03 08:31:39;;;;;;;17.63;7.50;;;20.10;46.90;;;;;;5052117;28;20029;-73
2023/05/03 08:34:06;;;;;;;9.48;6.00;;;20.10;46.20;;;;;;5071713;28;20082;-74
2023/05/03 08:36:34;;;;;;;10.38;6.00;;;20.10;47.20;;;;;;5073303;28;20029;-73
2023/05/03 08:39:04;;;;;;;17.50;6.72;;;20.30;47.50;;;;;;5071689;28;20024;-75
2023/05/03 08:41:31;;;;;;;11.05;6.50;;;20.30;47.70;;;;;;5072089;28;20025;-74
2023/05/03 08:43:58;;;;;;;15.15;5.00;;;20.50;46.40;;;;;;5073257;28;20027;-73
2023/05/03 08:46:24;;;;;;;8.57;5.20;;;20.60;46.80;;;;;;5073260;28;20013;-74
2023/05/03 08:48:51;;;;;;;10.38;5.72;;;20.80;46.90;;;;;;5072046;28;20081;-73
2023/05/03 08:51:18;;;;;;;8.50;5.57;;;20.90;46.40;;;;;;5073218;28;20078;-73
2023/05/03 08:53:45;;;;;;;8.82;6.38;;;21.10;45.70;;;;;;5064459;28;20096;-73
2023/05/03 08:56:23;;;;;;;10.30;5.53;;;21.20;45.00;;;;;;5053422;28;20514;-73
2023/05/03 08:58:52;;;;;;;7.65;4.78;;;21.20;44.20;;;;;;5053078;28;20083;-73
2023/05/03 09:01:19;;;;;;;14.43;5.60;;;21.30;44.40;;;;;;5056422;28;20423;-73
2023/05/03 09:03:50;;;;;;;8.68;5.13;;;21.40;44.10;;;;;;5071740;28;20025;-73
2023/05/03 09:06:25;;;;;;;9.18;5.95;;;21.60;44.10;;;;;;5072838;28;20028;-73
2023/05/03 09:08:52;;;;;;;12.52;6.07;;;21.70;43.30;;;;;;5073332;28;20059;-74
2023/05/03 09:11:22;;;;;;;12.00;5.72;;;21.80;43.40;;;;;;5071585;28;20029;-74
2023/05/03 09:13:50;;;;;;;8.68;5.10;;;21.70;40.70;;;;;;5071649;28;20028;-74
2023/05/03 09:16:26;;;;;;;9.75;5.25;;;21.60;40.70;;;;;;5072882;28;20025;-74
2023/05/03 09:19:00;;;;;;;9.85;5.50;;;21.40;40.70;;;;;;5070794;28;20115;-74
2023/05/03 09:21:26;;;;;;;14.77;5.30;;;21.20;40.40;;;;;;5072820;28;20032;-74
2023/05/03 09:23:52;;;;;;;9.55;5.53;;;20.90;41.10;;;;;;5063308;28;20041;-74
2023/05/03 09:26:31;;;;;;;10.82;5.88;;;20.70;41.70;;;;;;5052846;28;20028;-74
2023/05/03 09:28:59;;;;;;;8.63;5.38;;;20.40;41.70;;;;;;5053051;28;20458;-74
2023/05/03 09:31:27;;;;;;;10.38;5.13;;;20.30;42.50;;;;;;5056132;28;20037;-73
2023/05/03 09:33:52;;;;;;;9.57;4.05;;;20.10;42.90;;;;;;5072625;28;20046;-74
2023/05/03 09:36:18;;;;;;;8.13;4.35;;;20.10;43.80;;;;;;5071490;28;20024;-74
2023/05/03 09:38:44;;;;;;;7.22;4.55;;;20.20;44.70;;;;;;5071843;28;20416;-74
2023/05/03 09:41:10;;;;;;;10.50;5.68;;;20.30;44.00;;;;;;5052587;28;20117;-74
2023/05/03 09:43:50;;;;;;;11.77;5.07;;;20.40;43.30;;;;;;5052659;28;20116;-75
2023/05/03 09:46:16;;;;;;;8.25;4.35;;;20.30;43.00;;;;;;5052748;28;20025;-74
2023/05/03 09:48:42;;;;;;;10.43;5.38;;;20.20;42.80;;;;;;5062599;28;20039;-74
2023/05/03 09:51:10;;;;;;;10.43;6.60;;;20.20;42.90;;;;;;5071612;28;20103;-73
2023/05/03 09:53:38;;;;;;;5.82;4.68;;;20.20;44.80;;;;;;5066016;28;20029;-74
2023/05/03 09:56:11;;;;;;;6.38;4.45;;;20.30;44.40;;;;;;5053014;28;20032;-74
2023/05/03 09:58:38;;;;;;;10.52;4.30;;;20.40;44.60;;;;;;5052721;28;20100;-73
2023/05/03 10:01:04;;;;;;;7.78;4.82;;;20.50;44.40;;;;;;5052550;28;20060;-75
2023/05/03 10:03:40;;;;;;;9.27;5.03;;;20.70;44.10;;;;;;5070134;28;20020;-74
2023/05/03 10:06:23;;;;;;;7.95;4.72;;;20.80;43.80;;;;;;5076278;28;20074;-74
2023/05/03 10:09:11;;;;;;;11.98;5.75;;;21.10;43.90;;;;;;5076134;28;20020;-74
2023/05/03 10:11:37;;;;;;;7.32;5.30;;;21.30;43.00;;;;;;5075977;28;20035;-75
2023/05/03 10:14:05;;;;;;;7.85;4.65;;;21.60;43.80;;;;;;5072842;28;20032;-74
2023/05/03 10:16:39;;;;;;;8.30;4.25;;;21.80;41.70;;;;;;5075477;28;20029;-74
2023/05/03 10:19:16;;;;;;;6.85;4.72;;;22.00;41.90;;;;;;5076139;28;20028;-74
2023/05/03 10:21:45;;;;;;;8.45;4.85;;;22.20;41.70;;;;;;5076042;28;20378;-74
2023/05/03 10:24:15;;;;;;;7.35;4.10;;;22.40;42.10;;;;;;5067302;28;20036;-74
2023/05/03 10:26:46;;;;;;;9.02;4.18;;;22.60;41.40;;;;;;5075753;28;20021;-74
2023/05/03 10:29:33;;;;;;;5.82;3.95;;;22.70;40.60;;;;;;5075694;28;20482;-74
2023/05/03 10:32:14;;;;;;;5.90;3.60;;;22.80;40.30;;;;;;5075462;28;20039;-74
2023/05/03 10:34:41;;;;;;;8.52;4.35;;;23.00;39.90;;;;;;5059303;28;20057;-74
2023/05/03 10:37:09;;;;;;;5.80;4.38;;;23.10;39.30;;;;;;5073710;28;20035;-74
2023/05/03 10:39:43;;;;;;;7.35;4.57;;;23.10;39.00;;;;;;5068129;28;20029;-74
2023/05/03 10:42:08;;;;;;;6.50;4.20;;;23.20;38.40;;;;;;5053977;28;20048;-74
2023/05/03 10:44:53;;;;;;;8.85;4.90;;;23.20;38.80;;;;;;5055274;28;20025;-74
2023/05/03 10:47:23;;;;;;;8.25;4.55;;;23.20;38.10;;;;;;5055468;28;20471;-75
2023/05/03 10:50:19;;;;;;;5.85;4.07;;;23.20;38.10;;;;;;5055556;28;20021;-75
2023/05/03 10:52:46;;;;;;;7.35;4.13;;;23.40;39.70;;;;;;5039768;28;20082;-75
2023/05/03 10:55:20;;;;;;;10.45;5.55;;;23.50;38.30;;;;;;5070589;28;20107;-74
2023/05/03 10:57:47;;;;;;;6.90;5.05;;;23.70;38.40;;;;;;5073920;28;20028;-75
2023/05/03 11:00:40;;;;;;;6.78;5.13;;;23.70;37.10;;;;;;5075025;28;20021;-74
2023/05/03 11:03:38;;;;;;;8.90;5.25;;;23.80;38.10;;;;;;5070211;28;20090;-74
2023/05/03 11:06:04;;;;;;;9.05;5.60;;;23.90;38.40;;;;;;5072422;28;20034;-74
2023/05/03 11:08:36;;;;;;;8.32;5.78;;;24.00;38.40;;;;;;5075384;28;20052;-75
2023/05/03 11:11:08;;;;;;;10.45;7.30;;;24.20;38.30;;;;;;5065229;28;20032;-74
2023/05/03 11:13:35;;;;;;;5.97;4.28;;;24.40;38.00;;;;;;5054771;28;20075;-75
2023/05/03 11:16:02;;;;;;;8.77;5.13;;;24.60;36.50;;;;;;5060427;28;20034;-75
2023/05/03 11:18:29;;;;;;;9.43;5.85;;;24.70;37.10;;;;;;5073320;28;20032;-74
2023/05/03 11:20:54;;;;;;;6.75;4.43;;;24.80;36.50;;;;;;5074226;28;20021;-74
2023/05/03 11:23:27;;;;;;;7.40;5.60;;;25.00;36.10;;;;;;5072015;28;20032;-73
2023/05/03 11:25:55;;;;;;;5.82;4.82;;;25.00;34.10;;;;;;5073716;28;20073;-75
2023/05/03 11:28:21;;;;;;;7.75;4.47;;;24.80;33.70;;;;;;5073728;28;20115;-74
2023/05/03 11:30:46;;;;;;;8.70;4.55;;;24.60;34.10;;;;;;5073777;28;20166;-73
2023/05/03 11:33:12;;;;;;;7.18;5.05;;;24.60;35.40;;;;;;5073493;28;20028;-74
2023/05/03 11:35:38;;;;;;;10.23;6.95;;;24.70;35.90;;;;;;5074219;28;20052;-74
2023/05/03 11:38:04;;;;;;;8.48;6.18;;;24.70;36.10;;;;;;5073815;28;20027;-74
2023/05/03 11:40:30;;;;;;;6.32;4.68;;;24.90;35.50;;;;;;5071172;28;20032;-74
2023/05/03 11:43:00;;;;;;;8.18;4.20;;;25.00;35.70;;;;;;5071030;28;20027;-73
2023/05/03 11:45:28;;;;;;;11.13;6.57;;;25.20;35.10;;;;;;5074424;28;20096;-75
2023/05/03 11:47:55;;;;;;;9.07;5.63;;;25.40;35.30;;;;;;5071142;28;20520;-74
2023/05/03 11:50:50;;;;;;;6.53;4.38;;;25.50;34.40;;;;;;5074751;28;20347;-74
2023/05/03 11:53:17;;;;;;;9.82;4.45;;;25.70;35.10;;;;;;5071138;28;20498;-74
2023/05/03 11:55:48;;;;;;;6.50;4.43;;;25.70;33.30;;;;;;5073750;28;20028;-74
2023/05/03 11:58:15;;;;;;;9.23;4.07;;;25.70;33.70;;;;;;5072805;28;20146;-74
2023/05/03 12:00:48;;;;;;;7.78;4.07;;;25.60;33.90;;;;;;5073728;28;20377;-73
2023/05/03 12:03:18;;;;;;;;;;;25.60;33.40;;;;;;5060179;28;20059;-74
2023/05/03 12:05:46;;;;;;;5.47;3.97;;;25.50;35.30;;;;;;5052540;28;20415;-74
2023/05/03 12:08:12;;;;;;;9.90;4.25;;;25.40;33.00;;;;;;5067375;28;20386;-74
2023/05/03 12:10:38;;;;;;;6.95;4.28;;;25.10;33.10;;;;;;5069229;28;20013;-74
2023/05/03 12:13:06;;;;;;;7.90;4.88;;;24.90;33.30;;;;;;5069399;28;20017;-74
2023/05/03 12:17:59;;;;;;;9.20;3.83;;;24.30;32.80;;;;;;5070775;28;20020;-74
2023/05/03 12:20:30;;;;;;;4.53;3.40;;;24.10;34.70;;;;;;5072260;28;20025;-73
2023/05/03 12:23:07;;;;;;;7.22;4.93;;;24.00;35.10;;;;;;5077938;28;20024;-74
2023/05/03 12:25:35;;;;;;;15.40;5.82;;;24.00;35.00;;;;;;5070362;28;20054;-74
2023/05/03 12:28:03;;;;;;;12.48;7.55;;;24.10;35.20;;;;;;5071827;28;20028;-74
2023/05/03 12:30:29;;;;;;;12.93;8.45;;;24.10;35.40;;;;;;5064239;28;20385;-73
2023/05/03 12:32:55;;;;;;;5.50;4.38;;;24.30;35.10;;;;;;5065029;28;20028;-73
2023/05/03 12:35:22;;;;;;;9.55;4.82;;;24.40;35.00;;;;;;5063867;28;20037;-74
2023/05/03 12:37:49;;;;;;;6.50;3.47;;;24.50;34.60;;;;;;5064559;28;20017;-74
2023/05/03 12:40:18;;;;;;;9.75;5.65;;;24.60;34.90;;;;;;5066923;28;20021;-73
2023/05/03 12:42:45;;;;;;;6.40;4.10;;;24.70;34.70;;;;;;5062733;28;20051;-74
2023/05/03 12:45:14;;;;;;;11.90;5.85;;;24.80;34.70;;;;;;5067844;28;20616;-73
2023/05/03 12:47:40;;;;;;;10.20;4.35;;;24.90;34.80;;;;;;5065641;28;20017;-74
2023/05/03 12:50:08;;;;;;;8.60;4.00;;;24.90;34.60;;;;;;5065974;28;20016;-74